Time;durP1;ratioP1;P1;durP2;ratioP2;P2;SDS_P1;SDS_P2;PMS_P1;PMS_P2;Temp;Humidity;BMP_temperature;BMP_pressure;BME280_temperature;BME280_humidity;BME280_pressure;Samples;Min_cycle;Max_cycle;Signal;HPM_P1;HPM_P2
2024/01/02 00:02:08;;;;;;;19.30;15.00;;;;;;;16.25;40.27;100462.06;103308;1281;62257;-77
2024/01/02 00:04:34;;;;;;;19.60;14.60;;;;;;;16.25;40.26;100456.89;103569;1281;61385;-77
2024/01/02 00:06:59;;;;;;;19.10;14.80;;;;;;;16.25;40.23;100457.21;103233;1282;61264;-77
2024/01/02 00:09:25;;;;;;;19.90;15.50;;;;;;;16.25;40.19;100456.02;103343;1282;62264;-77
2024/01/02 00:11:51;;;;;;;20.70;15.30;;;;;;;16.25;40.26;100455.48;103380;1282;61402;-77
2024/01/02 00:14:16;;;;;;;19.00;15.40;;;;;;;16.25;40.29;100463.64;103092;1282;60294;-77
2024/01/02 00:16:42;;;;;;;18.90;14.30;;;;;;;16.25;40.20;100469.33;103110;1282;61498;-77
2024/01/02 00:19:07;;;;;;;19.40;15.50;;;;;;;16.25;40.29;100466.83;103261;1282;61480;-77
2024/01/02 00:21:33;;;;;;;20.50;15.40;;;;;;;16.25;40.28;100464.91;103387;1282;61440;-77
2024/01/02 00:23:59;;;;;;;18.50;14.90;;;;;;;16.25;40.23;100462.78;103192;1282;61191;-77
2024/01/02 00:26:25;;;;;;;18.10;14.40;;;;;;;16.25;40.22;100466.68;103288;1282;62311;-77
2024/01/02 00:28:50;;;;;;;18.50;15.50;;;;;;;16.24;40.31;100464.05;103303;1281;61392;-77
2024/01/02 00:31:16;;;;;;;18.40;14.90;;;;;;;16.25;40.15;100470.06;103250;1282;61340;-77
2024/01/02 00:33:42;;;;;;;17.90;14.50;;;;;;;16.24;40.18;100477.04;103198;1282;61357;-77
2024/01/02 00:36:11;;;;;;;17.70;15.00;;;;;;;16.24;40.31;100483.94;103259;1283;60013;-77
2024/01/02 00:38:38;;;;;;;17.70;14.50;;;;;;;16.24;40.20;100489.27;103406;1282;72945;-77
2024/01/02 00:41:04;;;;;;;19.10;14.90;;;;;;;16.24;40.27;100485.55;103374;1282;74869;-77
2024/01/02 00:43:30;;;;;;;17.70;13.90;;;;;;;16.24;40.26;100478.11;103399;1281;61157;-77
2024/01/02 00:45:56;;;;;;;19.50;15.10;;;;;;;16.23;40.26;100477.06;103253;1282;61901;-77
2024/01/02 00:48:22;;;;;;;17.60;14.00;;;;;;;16.23;40.24;100480.98;103241;1282;61262;-77
2024/01/02 00:50:47;;;;;;;19.90;14.00;;;;;;;16.23;40.28;100481.50;103137;1282;61459;-77
2024/01/02 00:53:13;;;;;;;19.60;14.40;;;;;;;16.23;40.33;100476.71;103248;1284;61387;-77
2024/01/02 00:55:39;;;;;;;18.30;14.00;;;;;;;16.23;40.26;100467.67;103208;1282;61285;-77
2024/01/02 00:58:04;;;;;;;18.10;14.90;;;;;;;16.23;40.25;100467.28;103251;1282;60071;-77
2024/01/02 01:00:30;;;;;;;17.90;14.20;;;;;;;16.23;40.30;100462.17;103295;1281;61479;-77
2024/01/02 01:02:55;;;;;;;18.20;14.30;;;;;;;16.23;40.34;100463.23;103162;1282;62262;-77
2024/01/02 01:05:21;;;;;;;19.00;14.60;;;;;;;16.22;40.31;100470.73;103165;1282;60476;-77
2024/01/02 01:07:47;;;;;;;18.70;15.20;;;;;;;16.22;40.36;100471.78;103402;1282;61292;-77
2024/01/02 01:10:12;;;;;;;19.30;15.40;;;;;;;16.22;40.34;100471.99;103366;1281;61150;-77
2024/01/02 01:12:39;;;;;;;20.20;15.30;;;;;;;16.22;40.31;100478.20;103286;1281;61374;-77
2024/01/02 01:15:05;;;;;;;20.30;15.20;;;;;;;16.22;40.35;100486.38;103363;1281;60229;-77
2024/01/02 01:17:30;;;;;;;17.00;14.80;;;;;;;16.22;40.24;100490.09;103200;1282;61274;-77
2024/01/02 01:19:56;;;;;;;18.80;15.10;;;;;;;16.22;40.29;100486.90;103323;1282;61398;-77
2024/01/02 01:22:23;;;;;;;20.00;15.20;;;;;;;16.22;40.28;100479.08;103269;1282;61114;-77
2024/01/02 01:24:49;;;;;;;18.60;14.90;;;;;;;16.22;40.26;100482.98;103351;1281;61350;-77
2024/01/02 01:27:14;;;;;;;19.30;14.80;;;;;;;16.22;40.20;100488.31;103209;1282;59992;-78
2024/01/02 01:29:40;;;;;;;20.40;15.00;;;;;;;16.21;40.32;100487.09;103335;1282;61389;-78
2024/01/02 01:32:06;;;;;;;18.90;14.80;;;;;;;16.22;40.33;100484.41;103207;1281;60002;-78
2024/01/02 01:34:32;;;;;;;19.50;14.60;;;;;;;16.22;40.26;100487.27;103097;1281;61266;-78
2024/01/02 01:36:58;;;;;;;18.80;14.40;;;;;;;16.22;40.41;100491.53;103437;1282;61410;-78
2024/01/02 01:39:23;;;;;;;17.60;14.60;;;;;;;16.21;40.29;100493.52;103317;1285;60522;-78
2024/01/02 01:41:49;;;;;;;17.10;14.50;;;;;;;16.21;40.33;100486.03;103315;1282;61237;-78
2024/01/02 01:44:14;;;;;;;18.00;14.40;;;;;;;16.21;40.25;100488.00;103420;1281;61387;-77
2024/01/02 01:46:40;;;;;;;18.10;14.60;;;;;;;16.21;40.30;100479.67;103228;1282;72478;-78
2024/01/02 01:49:07;;;;;;;18.90;14.90;;;;;;;16.21;40.20;100483.93;103127;1281;61869;-78
2024/01/02 01:51:34;;;;;;;18.70;14.10;;;;;;;16.21;40.31;100483.74;103234;1282;60057;-78
2024/01/02 01:54:00;;;;;;;19.70;15.20;;;;;;;16.21;40.36;100484.12;103151;1282;62292;-78
2024/01/02 01:56:26;;;;;;;18.20;14.30;;;;;;;16.21;40.37;100477.91;103247;1281;72356;-78
2024/01/02 01:58:52;;;;;;;17.50;14.30;;;;;;;16.20;40.34;100471.88;103288;1282;61235;-77
2024/01/02 02:01:18;;;;;;;20.80;14.70;;;;;;;16.21;40.35;100465.30;103323;1281;61232;-78
2024/01/02 02:03:43;;;;;;;17.50;14.20;;;;;;;16.20;40.35;100463.55;103239;1282;61445;-78
2024/01/02 02:06:09;;;;;;;18.30;14.40;;;;;;;16.20;40.41;100463.58;103288;1281;61409;-77
2024/01/02 02:08:36;;;;;;;18.20;14.50;;;;;;;16.20;40.38;100469.81;103203;1282;73390;-77
2024/01/02 02:11:03;;;;;;;18.70;14.90;;;;;;;16.20;40.31;100475.66;103044;1282;74372;-78
2024/01/02 02:13:28;;;;;;;18.40;15.30;;;;;;;16.20;40.37;100470.69;102881;1282;59967;-78
2024/01/02 02:15:54;;;;;;;18.00;14.90;;;;;;;16.20;40.36;100466.77;103374;1281;61452;-78
2024/01/02 02:18:19;;;;;;;17.70;14.50;;;;;;;16.19;40.35;100466.63;103323;1281;61420;-78
2024/01/02 02:20:45;;;;;;;19.80;14.70;;;;;;;16.20;40.36;100467.31;103268;1281;61379;-78
2024/01/02 02:23:11;;;;;;;18.90;14.70;;;;;;;16.20;40.41;100477.80;103230;1282;61461;-77
2024/01/02 02:25:37;;;;;;;18.30;14.00;;;;;;;16.19;40.37;100477.98;103376;1281;61377;-78
2024/01/02 02:28:03;;;;;;;19.60;14.80;;;;;;;16.19;40.43;100475.51;103232;1282;61375;-78
2024/01/02 02:30:29;;;;;;;19.50;14.70;;;;;;;16.19;40.39;100473.91;103328;1282;61234;-78
2024/01/02 02:32:55;;;;;;;18.30;14.60;;;;;;;16.19;40.38;100462.92;103303;1282;62143;-77
2024/01/02 02:35:21;;;;;;;18.90;14.40;;;;;;;16.18;40.39;100467.02;103410;1281;59968;-77
2024/01/02 02:37:46;;;;;;;17.90;14.00;;;;;;;16.19;40.37;100478.91;103306;1281;61417;-78
2024/01/02 02:40:12;;;;;;;17.90;14.60;;;;;;;16.19;40.36;100476.95;103291;1281;61478;-78
2024/01/02 02:42:38;;;;;;;18.40;14.10;;;;;;;16.18;40.37;100476.27;103453;1282;60061;-77
2024/01/02 02:45:05;;;;;;;19.90;14.70;;;;;;;16.18;40.31;100473.60;103307;1282;73496;-78
2024/01/02 02:47:30;;;;;;;18.90;14.40;;;;;;;16.18;40.36;100480.19;103273;1282;61368;-78
2024/01/02 02:49:56;;;;;;;19.00;14.80;;;;;;;16.18;40.43;100478.58;103312;1282;61389;-78
2024/01/02 02:52:22;;;;;;;19.30;14.40;;;;;;;16.18;40.37;100472.73;103224;1282;61433;-77
2024/01/02 02:54:47;;;;;;;18.30;14.00;;;;;;;16.18;40.33;100470.45;103461;1282;61394;-78
2024/01/02 02:57:13;;;;;;;19.70;15.00;;;;;;;16.18;40.39;100475.05;103330;1281;61247;-78
2024/01/02 02:59:38;;;;;;;16.80;13.80;;;;;;;16.18;40.39;100477.50;103295;1282;61401;-78
2024/01/02 03:02:04;;;;;;;19.30;14.00;;;;;;;16.18;40.42;100479.48;103322;1282;61363;-77
2024/01/02 03:04:30;;;;;;;17.70;13.90;;;;;;;16.18;40.26;100484.46;103310;1281;61385;-78
2024/01/02 03:06:56;;;;;;;18.10;14.00;;;;;;;16.18;40.44;100488.54;103240;1284;61372;-78
2024/01/02 03:09:22;;;;;;;17.20;14.10;;;;;;;16.18;40.36;100499.20;103330;1282;61251;-78
2024/01/02 03:11:48;;;;;;;18.40;13.50;;;;;;;16.18;40.38;100514.67;103208;1282;61443;-77
2024/01/02 03:14:14;;;;;;;17.40;13.70;;;;;;;16.18;40.35;100518.55;103105;1284;60528;-78
2024/01/02 03:16:41;;;;;;;17.40;14.20;;;;;;;16.18;40.31;100519.46;103377;1282;71353;-78
2024/01/02 03:19:07;;;;;;;17.50;13.70;;;;;;;16.17;40.46;100516.80;103210;1282;74456;-77
2024/01/02 03:21:33;;;;;;;19.00;14.10;;;;;;;16.18;40.32;100515.72;103329;1281;60050;-78
2024/01/02 03:23:58;;;;;;;18.30;15.00;;;;;;;16.17;40.32;100522.14;103234;1282;61358;-77
2024/01/02 03:26:24;;;;;;;18.80;14.90;;;;;;;16.18;40.37;100526.39;103273;1282;62419;-79
2024/01/02 03:28:50;;;;;;;16.60;13.40;;;;;;;16.17;40.44;100533.51;103310;1282;59948;-78
2024/01/02 03:31:16;;;;;;;16.30;13.90;;;;;;;16.17;40.36;100529.81;103430;1281;62291;-78
2024/01/02 03:33:42;;;;;;;18.20;13.80;;;;;;;16.17;40.42;100525.88;103492;1282;61452;-78
2024/01/02 03:36:18;;;;;;;16.70;13.50;;;;;;;16.17;40.41;100524.13;103222;1282;61268;-77
2024/01/02 03:38:51;;;;;;;22.00;14.60;;;;;;;16.17;40.44;100523.40;103049;1284;72570;-78
2024/01/02 03:41:17;;;;;;;17.20;13.30;;;;;;;16.16;40.46;100528.80;103439;1282;74562;-78
2024/01/02 03:43:43;;;;;;;17.90;14.00;;;;;;;16.16;40.49;100525.77;103313;1285;61536;-78
2024/01/02 03:46:09;;;;;;;17.40;14.10;;;;;;;16.16;40.38;100527.73;103220;1282;60050;-77
2024/01/02 03:48:35;;;;;;;16.40;13.70;;;;;;;16.16;40.35;100530.00;103337;1281;61324;-77
2024/01/02 03:51:01;;;;;;;17.00;13.60;;;;;;;16.16;40.44;100528.06;103178;1282;61373;-76
2024/01/02 03:53:28;;;;;;;16.80;13.50;;;;;;;16.16;40.44;100533.56;103639;1285;61253;-76
2024/01/02 03:55:55;;;;;;;18.20;13.30;;;;;;;16.16;40.41;100537.50;103300;1281;61273;-78
2024/01/02 03:58:21;;;;;;;17.90;13.80;;;;;;;16.16;40.40;100531.99;103257;1282;61361;-79
2024/01/02 04:00:47;;;;;;;18.20;14.10;;;;;;;16.16;40.39;100533.42;103063;1282;61396;-79
2024/01/02 04:03:13;;;;;;;16.60;12.20;;;;;;;16.16;40.42;100544.25;103515;1281;61235;-76
2024/01/02 04:05:38;;;;;;;17.50;13.10;;;;;;;16.16;40.45;100546.17;103212;1282;61401;-77
2024/01/02 04:08:04;;;;;;;16.20;13.50;;;;;;;16.16;40.38;100544.25;103254;1282;61372;-77
2024/01/02 04:10:30;;;;;;;15.30;12.50;;;;;;;16.16;40.46;100539.27;103333;1281;72407;-76
2024/01/02 04:12:55;;;;;;;17.00;13.00;;;;;;;16.15;40.36;100539.82;103487;1282;61440;-78
2024/01/02 04:15:21;;;;;;;17.40;13.50;;;;;;;16.16;40.42;100542.30;103203;1282;59980;-79
2024/01/02 04:17:47;;;;;;;16.90;13.00;;;;;;;16.15;40.46;100538.58;103231;1281;61373;-76
2024/01/02 04:20:12;;;;;;;16.90;13.10;;;;;;;16.15;40.42;100534.17;103265;1282;61256;-77
2024/01/02 04:22:39;;;;;;;16.90;12.90;;;;;;;16.14;40.39;100542.89;103130;1282;72516;-76
2024/01/02 04:25:07;;;;;;;16.80;13.40;;;;;;;16.15;40.54;100546.24;103226;1282;74341;-76
2024/01/02 04:27:33;;;;;;;16.80;12.40;;;;;;;16.15;40.43;100549.08;103303;1282;61269;-77
2024/01/02 04:29:58;;;;;;;14.90;12.50;;;;;;;16.14;40.35;100539.34;103075;1282;61398;-77
2024/01/02 04:32:24;;;;;;;15.10;12.40;;;;;;;16.15;40.45;100543.39;103412;1282;60030;-76
2024/01/02 04:34:50;;;;;;;14.60;12.20;;;;;;;16.14;40.40;100543.44;103315;1282;61338;-77
2024/01/02 04:37:15;;;;;;;14.90;12.10;;;;;;;16.14;40.42;100549.48;103374;1282;61317;-76
2024/01/02 04:39:41;;;;;;;15.70;12.50;;;;;;;16.14;40.41;100551.23;103334;1286;61369;-76
2024/01/02 04:42:06;;;;;;;16.50;12.50;;;;;;;16.14;40.45;100556.94;103526;1281;62216;-76
2024/01/02 04:44:32;;;;;;;16.80;12.90;;;;;;;16.14;40.47;100562.64;103286;1282;62294;-77
2024/01/02 04:46:58;;;;;;;15.40;12.40;;;;;;;16.14;40.41;100564.75;103342;1284;61274;-77
2024/01/02 04:49:23;;;;;;;17.30;12.60;;;;;;;16.14;40.48;100560.69;103369;1282;61363;-77
2024/01/02 04:51:49;;;;;;;16.40;12.60;;;;;;;16.14;40.48;100565.63;103419;1281;62181;-76
2024/01/02 04:54:15;;;;;;;15.50;13.10;;;;;;;16.14;40.44;100558.91;103335;1282;61248;-76
2024/01/02 04:56:40;;;;;;;17.00;12.90;;;;;;;16.14;40.47;100554.64;103324;1282;61289;-76
2024/01/02 04:59:06;;;;;;;14.70;12.40;;;;;;;16.14;40.44;100546.29;103373;1281;61368;-77
2024/01/02 05:01:32;;;;;;;15.40;12.60;;;;;;;16.14;40.42;100548.05;103388;1282;61243;-76
2024/01/02 05:03:57;;;;;;;14.70;12.30;;;;;;;16.14;40.53;100545.78;103255;1282;61779;-76
2024/01/02 05:06:23;;;;;;;14.90;12.00;;;;;;;16.14;40.54;100547.19;103337;1282;61488;-76
2024/01/02 05:08:50;;;;;;;15.30;12.00;;;;;;;16.14;40.51;100551.98;103279;1282;72419;-76
2024/01/02 05:11:15;;;;;;;14.20;11.60;;;;;;;16.14;40.49;100547.92;103325;1282;61236;-76
2024/01/02 05:13:41;;;;;;;14.00;11.60;;;;;;;16.13;40.46;100543.13;103300;1282;61456;-76
2024/01/02 05:16:08;;;;;;;15.80;11.90;;;;;;;16.13;40.46;100547.40;103277;1282;61248;-76
2024/01/02 05:18:34;;;;;;;15.50;11.60;;;;;;;16.13;40.56;100550.27;103419;1282;61451;-76
2024/01/02 05:20:59;;;;;;;15.70;11.60;;;;;;;16.13;40.52;100553.45;103241;1282;61425;-76
2024/01/02 05:23:25;;;;;;;14.30;11.50;;;;;;;16.13;40.52;100551.50;103337;1282;61252;-76
2024/01/02 05:25:51;;;;;;;15.30;11.50;;;;;;;16.13;40.51;100558.06;103563;1286;59345;-76
2024/01/02 05:28:16;;;;;;;14.40;11.20;;;;;;;16.13;40.45;100568.55;103096;1282;60062;-79
2024/01/02 05:30:42;;;;;;;14.80;11.40;;;;;;;16.13;40.53;100566.05;103217;1282;61442;-79
2024/01/02 05:33:08;;;;;;;14.90;11.40;;;;;;;16.13;40.51;100565.16;103369;1282;61447;-79
2024/01/02 05:35:33;;;;;;;14.40;12.00;;;;;;;16.13;40.44;100574.56;103334;1283;61247;-79
2024/01/02 05:37:59;;;;;;;12.40;10.60;;;;;;;16.13;40.43;100573.35;103350;1282;62152;-79
2024/01/02 05:40:24;;;;;;;13.70;10.90;;;;;;;16.13;40.51;100569.79;103246;1282;61368;-78
2024/01/02 05:42:50;;;;;;;14.20;11.30;;;;;;;16.12;40.55;100576.05;103317;1282;61246;-79
2024/01/02 05:45:16;;;;;;;15.90;11.60;;;;;;;16.13;40.48;100581.52;103611;1282;60017;-79
2024/01/02 05:47:41;;;;;;;13.80;11.10;;;;;;;16.12;40.53;100588.46;103220;1282;61843;-79
2024/01/02 05:50:07;;;;;;;15.10;11.60;;;;;;;16.12;40.42;100581.90;103251;1282;60491;-79
2024/01/02 05:52:33;;;;;;;14.60;11.00;;;;;;;16.12;40.49;100588.11;103558;1285;61381;-79
2024/01/02 05:54:59;;;;;;;13.50;10.90;;;;;;;16.12;40.49;100596.09;103167;1288;73594;-79
2024/01/02 05:57:24;;;;;;;14.00;10.60;;;;;;;16.12;40.58;100594.86;103283;1282;63159;-76
2024/01/02 05:59:50;;;;;;;15.40;11.00;;;;;;;16.12;40.52;100595.06;103354;1281;61373;-77
2024/01/02 06:02:16;;;;;;;13.80;10.70;;;;;;;16.12;40.49;100591.85;103429;1285;62185;-76
2024/01/02 06:04:41;;;;;;;12.80;10.70;;;;;;;16.11;40.45;100589.73;103095;1289;61372;-78
2024/01/02 06:07:07;;;;;;;12.30;10.00;;;;;;;16.11;40.45;100591.17;103264;1282;60031;-79
2024/01/02 06:09:33;;;;;;;15.00;10.60;;;;;;;16.12;40.55;100598.10;103106;1282;74664;-79
2024/01/02 06:11:58;;;;;;;13.40;10.50;;;;;;;16.11;40.45;100594.19;103344;1282;61274;-79
2024/01/02 06:14:24;;;;;;;13.70;10.70;;;;;;;16.11;40.43;100600.44;103350;1282;61484;-79
2024/01/02 06:16:50;;;;;;;13.80;10.30;;;;;;;16.11;40.45;100616.75;103311;1282;61436;-79
2024/01/02 06:19:18;;;;;;;12.20;10.10;;;;;;;16.11;40.50;100627.58;103262;1282;61545;-79
2024/01/02 06:21:44;;;;;;;14.60;10.40;;;;;;;16.11;40.53;100621.19;103317;1282;62137;-79
2024/01/02 06:24:10;;;;;;;13.80;10.60;;;;;;;16.11;40.47;100607.53;103127;1282;61402;-77
2024/01/02 06:26:36;;;;;;;12.50;10.30;;;;;;;16.11;40.49;100608.94;103279;1282;61333;-77
2024/01/02 06:29:01;;;;;;;13.20;9.90;;;;;;;16.10;40.49;100634.52;103402;1282;61362;-77
2024/01/02 06:31:28;;;;;;;12.50;9.30;;;;;;;16.11;40.50;100642.85;103231;1286;74504;-76
2024/01/02 06:33:53;;;;;;;13.30;10.10;;;;;;;16.11;40.55;100640.73;103266;1286;61411;-77
2024/01/02 06:36:19;;;;;;;13.60;10.00;;;;;;;16.11;40.50;100638.44;103314;1281;60110;-77
2024/01/02 06:38:45;;;;;;;12.30;10.10;;;;;;;16.11;40.49;100657.95;103445;1284;61510;-76
2024/01/02 06:41:11;;;;;;;12.50;9.70;;;;;;;16.11;40.46;100668.97;103202;1284;61470;-77
2024/01/02 06:43:37;;;;;;;11.60;9.50;;;;;;;16.11;40.51;100669.14;103368;1282;59938;-79
2024/01/02 06:46:03;;;;;;;12.90;9.80;;;;;;;16.10;40.48;100659.06;103273;1282;62293;-79
2024/01/02 06:48:28;;;;;;;12.40;10.00;;;;;;;16.11;40.41;100665.07;103323;1282;61408;-78
2024/01/02 06:50:55;;;;;;;14.00;9.30;;;;;;;16.10;40.40;100656.40;103393;1281;59934;-79
2024/01/02 06:53:20;;;;;;;12.70;10.00;;;;;;;16.11;40.50;100646.26;103350;1282;61339;-79
2024/01/02 06:55:46;;;;;;;13.00;9.50;;;;;;;16.11;40.49;100652.82;103300;1282;61400;-78
2024/01/02 06:58:11;;;;;;;12.30;9.60;;;;;;;16.10;40.46;100653.91;103253;1282;60130;-78
2024/01/02 07:00:37;;;;;;;12.00;9.70;;;;;;;16.10;40.57;100642.38;103538;1282;61386;-79
2024/01/02 07:03:04;;;;;;;10.80;9.00;;;;;;;16.10;40.58;100632.09;103209;1282;72498;-79
2024/01/02 07:05:29;;;;;;;13.20;9.20;;;;;;;16.10;40.49;100629.06;103158;1287;61264;-79
2024/01/02 07:07:56;;;;;;;14.20;9.10;;;;;;;16.09;40.54;100622.00;103547;1282;61263;-76
2024/01/02 07:10:24;;;;;;;12.50;9.00;;;;;;;16.10;40.43;100634.21;103330;1282;61427;-77
2024/01/02 07:12:50;;;;;;;11.70;9.50;;;;;;;16.10;40.41;100651.80;103419;1283;73641;-77
2024/01/02 07:15:16;;;;;;;11.70;9.00;;;;;;;16.09;40.51;100656.61;103193;1282;61437;-78
2024/01/02 07:17:43;;;;;;;10.80;8.60;;;;;;;16.09;40.48;100661.40;103687;1282;59862;-79
2024/01/02 07:20:09;;;;;;;12.70;9.50;;;;;;;16.10;40.54;100674.86;103361;1282;61464;-79
2024/01/02 07:22:35;;;;;;;12.50;9.00;;;;;;;16.09;40.44;100667.63;103257;1281;61901;-79
2024/01/02 07:25:00;;;;;;;11.50;8.50;;;;;;;16.09;40.46;100666.39;103395;1282;61325;-78
2024/01/02 07:27:26;;;;;;;12.70;8.90;;;;;;;16.09;40.55;100667.27;103085;1282;61356;-78
2024/01/02 07:29:52;;;;;;;13.20;9.10;;;;;;;16.09;40.57;100662.13;103333;1285;61374;-79
2024/01/02 07:32:18;;;;;;;11.20;9.10;;;;;;;16.09;40.57;100665.52;103287;1288;61373;-79
2024/01/02 07:34:44;;;;;;;10.60;8.30;;;;;;;16.08;40.64;100668.38;103393;1285;61262;-79
2024/01/02 07:37:11;;;;;;;10.50;8.70;;;;;;;16.08;40.67;100666.44;102818;1282;590368;-79
2024/01/02 07:39:37;;;;;;;10.80;8.50;;;;;;;16.08;40.58;100667.86;103334;1282;61948;-79
2024/01/02 07:42:05;;;;;;;11.10;8.90;;;;;;;16.08;40.66;100667.86;103268;1282;62082;-79
2024/01/02 07:44:31;;;;;;;10.40;8.50;;;;;;;16.08;40.69;100661.13;103394;1282;72492;-79
2024/01/02 07:46:57;;;;;;;10.70;8.40;;;;;;;16.08;40.60;100658.81;103336;1282;61781;-79
2024/01/02 07:49:23;;;;;;;10.60;8.50;;;;;;;16.07;40.59;100650.67;103253;1286;59993;-76
2024/01/02 07:51:48;;;;;;;12.70;9.20;;;;;;;16.07;40.63;100644.64;103340;1282;61377;-76
2024/01/02 07:54:14;;;;;;;10.10;7.90;;;;;;;16.07;40.73;100642.89;103260;1282;61388;-76
2024/01/02 07:56:39;;;;;;;11.40;7.80;;;;;;;16.07;40.63;100646.42;103313;1282;61557;-77
2024/01/02 07:59:05;;;;;;;11.90;8.50;;;;;;;16.07;40.67;100661.36;103207;1282;74289;-78
2024/01/02 08:01:31;;;;;;;9.40;8.00;;;;;;;16.07;40.57;100693.11;103454;1282;61414;-79
2024/01/02 08:03:57;;;;;;;11.00;8.90;;;;;;;16.07;40.63;100696.85;103323;1282;62184;-79
2024/01/02 08:06:22;;;;;;;9.80;7.90;;;;;;;16.06;40.62;100682.48;103285;1285;61372;-79
2024/01/02 08:08:48;;;;;;;10.10;7.90;;;;;;;16.06;40.63;100685.35;103229;1287;61544;-79
2024/01/02 08:11:14;;;;;;;10.70;8.60;;;;;;;16.07;40.63;100692.08;103346;1286;61529;-79
2024/01/02 08:13:39;;;;;;;10.80;8.20;;;;;;;16.06;40.72;100693.19;103272;1282;61422;-79
2024/01/02 08:16:05;;;;;;;11.50;8.00;;;;;;;16.05;40.67;100705.27;103232;1286;61449;-79
2024/01/02 08:18:33;;;;;;;10.80;8.20;;;;;;;16.06;40.79;100716.61;103337;1284;61334;-79
2024/01/02 08:20:59;;;;;;;10.80;8.20;;;;;;;16.06;40.66;100718.21;103306;1282;74238;-79
2024/01/02 08:23:25;;;;;;;10.40;8.00;;;;;;;16.06;40.73;100703.83;103234;1282;61426;-79
2024/01/02 08:25:51;;;;;;;10.70;8.30;;;;;;;16.06;40.76;100700.80;103099;1282;61335;-79
2024/01/02 08:28:18;;;;;;;10.80;8.30;;;;;;;16.06;40.71;100709.87;103203;1287;62297;-77
2024/01/02 08:30:44;;;;;;;10.70;7.80;;;;;;;16.06;40.64;100709.17;103409;1286;61270;-77
2024/01/02 08:33:09;;;;;;;9.90;8.00;;;;;;;16.06;40.57;100710.58;103318;1282;61362;-77
2024/01/02 08:35:36;;;;;;;10.30;7.80;;;;;;;16.06;40.66;100712.34;103311;1285;62229;-77
2024/01/02 08:38:02;;;;;;;9.70;7.80;;;;;;;16.06;40.70;100711.13;103329;1283;61132;-77
2024/01/02 08:40:28;;;;;;;10.40;8.00;;;;;;;16.05;40.70;100705.98;103013;1288;61227;-77
2024/01/02 08:42:54;;;;;;;10.50;8.20;;;;;;;16.05;40.70;100701.90;103335;1286;61341;-77
2024/01/02 08:45:20;;;;;;;10.00;7.80;;;;;;;16.05;40.69;100702.27;103224;1283;61430;-77
2024/01/02 08:47:46;;;;;;;9.50;8.00;;;;;;;16.05;40.80;100695.16;103319;1282;61224;-79
2024/01/02 08:50:11;;;;;;;9.80;8.00;;;;;;;16.05;40.76;100689.33;103304;1282;61451;-79
2024/01/02 08:52:37;;;;;;;10.20;7.80;;;;;;;16.04;40.84;100693.95;103244;1282;61383;-79
2024/01/02 08:55:03;;;;;;;9.30;7.60;;;;;;;16.04;40.72;100689.89;103371;1282;61247;-79
2024/01/02 08:57:30;;;;;;;11.40;7.50;;;;;;;16.05;40.85;100689.14;103246;1282;61391;-79
2024/01/02 08:59:56;;;;;;;11.00;8.00;;;;;;;16.05;40.79;100688.45;103285;1283;61364;-79
2024/01/02 09:02:21;;;;;;;9.70;7.60;;;;;;;16.04;40.81;100674.27;103364;1284;61221;-77
2024/01/02 09:04:47;;;;;;;9.30;7.20;;;;;;;16.04;40.76;100663.46;103146;1283;74461;-78
2024/01/02 09:07:13;;;;;;;10.10;7.20;;;;;;;16.04;40.76;100645.16;103393;1284;61431;-79
2024/01/02 09:09:38;;;;;;;9.20;7.20;;;;;;;16.04;40.80;100633.46;103335;1283;61462;-79
2024/01/02 09:12:06;;;;;;;9.40;8.10;;;;;;;16.04;40.82;100638.80;103109;1282;61771;-79
2024/01/02 09:14:35;;;;;;;9.90;7.70;;;;;;;16.04;40.77;100649.27;103188;1287;59968;-79
2024/01/02 09:17:01;;;;;;;9.50;7.60;;;;;;;16.03;40.83;100653.73;103366;1282;61125;-79
2024/01/02 09:19:27;;;;;;;9.40;7.40;;;;;;;16.03;40.89;100653.02;103113;1282;61353;-79
2024/01/02 09:21:52;;;;;;;9.60;7.10;;;;;;;16.03;40.85;100667.92;103215;1283;61294;-79
2024/01/02 09:24:18;;;;;;;9.20;7.30;;;;;;;16.04;40.73;100683.89;103337;1283;61353;-79
2024/01/02 09:26:44;;;;;;;10.40;7.00;;;;;;;16.04;40.78;100683.36;103141;1282;61472;-79
2024/01/02 09:29:10;;;;;;;9.50;7.50;;;;;;;16.04;40.78;100671.45;103158;1285;59874;-79
2024/01/02 09:31:36;;;;;;;9.90;6.70;;;;;;;16.03;40.81;100659.59;103281;1286;61376;-79
2024/01/02 09:34:02;;;;;;;9.40;7.20;;;;;;;16.03;40.78;100658.71;103289;1283;73495;-79
2024/01/02 09:36:29;;;;;;;9.50;6.90;;;;;;;16.04;40.84;100655.48;103280;1281;61365;-79
2024/01/02 09:38:54;;;;;;;9.90;7.20;;;;;;;16.03;40.73;100660.11;103400;1285;61298;-79
2024/01/02 09:42:04;;;;;;;9.20;7.50;;;;;;;16.04;40.78;100664.52;103221;1282;62249;-79
2024/01/02 09:44:36;;;;;;;9.80;7.20;;;;;;;16.03;40.76;100675.23;103329;1282;71421;-79
2024/01/02 09:47:06;;;;;;;11.10;6.90;;;;;;;16.03;40.81;100677.35;103326;1283;75313;-79
2024/01/02 09:49:39;;;;;;;9.00;7.30;;;;;;;16.03;40.69;100681.77;103365;1282;60188;-79
2024/01/02 09:52:17;;;;;;;9.20;7.10;;;;;;;16.04;40.66;100683.35;103404;1283;61175;-79
2024/01/02 09:54:58;;;;;;;8.50;6.80;;;;;;;16.03;40.84;100686.22;103329;1283;72169;-79
2024/01/02 09:57:29;;;;;;;9.30;7.10;;;;;;;16.03;40.87;100682.99;103340;1283;74412;-79
2024/01/02 10:00:04;;;;;;;9.60;7.00;;;;;;;16.03;40.83;100678.21;103349;1282;61347;-78
2024/01/02 10:02:58;;;;;;;8.40;6.70;;;;;;;16.03;40.73;100672.36;103329;1283;61365;-79
2024/01/02 10:05:53;;;;;;;9.50;7.40;;;;;;;16.04;40.87;100676.77;103339;1282;72656;-79
2024/01/02 10:08:52;;;;;;;10.40;6.90;;;;;;;16.03;40.85;100677.37;103289;1282;74329;-78
2024/01/02 10:11:41;;;;;;;8.40;6.70;;;;;;;16.03;40.76;100670.41;102637;1289;61446;-79
2024/01/02 10:14:10;;;;;;;10.30;6.80;;;;;;;16.03;40.75;100670.77;102625;1288;60052;-79
2024/01/02 10:16:38;;;;;;;10.00;7.10;;;;;;;16.04;40.81;100668.80;102508;1290;72327;-79
2024/01/02 10:19:25;;;;;;;9.10;6.80;;;;;;;16.03;40.83;100667.20;102453;1293;75387;-77
2024/01/02 10:22:00;;;;;;;8.80;7.00;;;;;;;16.03;40.75;100665.63;102640;1289;61425;-76
2024/01/02 10:24:58;;;;;;;8.70;6.70;;;;;;;16.03;40.76;100657.45;102747;1292;61424;-77
2024/01/02 10:28:04;;;;;;;10.00;6.50;;;;;;;16.03;40.72;100656.57;102455;1290;72307;-76
2024/01/02 10:30:38;;;;;;;10.20;7.00;;;;;;;16.03;40.74;100663.17;102487;1291;74560;-77
2024/01/02 10:33:11;;;;;;;9.40;6.80;;;;;;;16.03;40.80;100659.74;102631;1288;61476;-76
2024/01/02 10:35:42;;;;;;;8.40;6.40;;;;;;;16.04;40.73;100658.14;102666;1288;61446;-76
2024/01/02 10:38:48;;;;;;;9.10;6.60;;;;;;;16.03;40.79;100656.55;102521;1287;71356;-76
2024/01/02 10:41:40;;;;;;;8.60;6.40;;;;;;;16.03;40.77;100656.74;102620;1292;74330;-77
2024/01/02 10:44:11;;;;;;;9.00;6.60;;;;;;;16.03;40.72;100648.75;102706;1288;61501;-76
2024/01/02 10:46:58;;;;;;;10.20;6.80;;;;;;;16.03;40.79;100636.67;102499;1288;61377;-76
2024/01/02 10:49:23;;;;;;;9.60;6.60;;;;;;;16.03;40.76;100631.71;103023;1283;73240;-76
2024/01/02 10:52:34;;;;;;;8.90;6.30;;;;;;;16.03;40.86;100627.98;103578;1285;61396;-76
2024/01/02 10:55:19;;;;;;;8.20;6.30;;;;;;;16.03;40.85;100624.98;102887;1286;61240;-76
2024/01/02 10:58:07;;;;;;;9.20;6.80;;;;;;;16.03;40.84;100623.19;102873;1290;60273;-76
2024/01/02 11:00:37;;;;;;;8.40;6.10;;;;;;;16.03;40.82;100617.52;102989;1282;70248;-76
2024/01/02 11:03:12;;;;;;;9.90;6.80;;;;;;;16.04;40.93;100611.82;103222;1282;74432;-77
2024/01/02 11:05:44;;;;;;;7.80;5.60;;;;;;;16.04;40.88;100608.42;103297;1282;61263;-77
2024/01/02 11:08:21;;;;;;;8.10;6.40;;;;;;;16.04;40.79;100605.41;103460;1288;62140;-77
2024/01/02 11:11:01;;;;;;;8.70;6.30;;;;;;;16.04;40.77;100596.16;103337;1282;72836;-76